Terminal Aerodrome Forecast
Issued by NWS

Home | Current Version | Previous Version | Text Only | Print | Product List | Glossary On
Versions: 1 2 3 4 5 6 7 8 9 10 11 12
669
FTAK31 PAJN 242323
TAFAJN
TAF
PAJN 242323Z 2500/2524 VRB05KT P6SM -DZ FEW007 BKN035 OVC050
     FM250400 VRB05KT P6SM FEW004 OVC035
     FM250900 VRB05KT 4SM -RA BR FEW004 OVC010
     FM251700 VRB05KT 5SM -RA BR FEW004 OVC015=

USA.gov is the U.S. government's official web portal to all federal, state and local government web resources and services.